Vliegveld de Kooy, Nederland

3:24 AM CEST op 26 augustus 2016 (GMT +0200)
Meteo - Aan Zee (Den Helder) | | Change Station

Hoogte 10 ft 52.93 °N, 4.77 °E | Updated 2 seconds ago

Mist
Mist
71.1 °F
Voelt als 71.1 °F
N
0.9
Wind Variabel Wind van zuid
Gusts 2.0 mijl/u

Vandaag
Hoog -- | Laag -- °F
--% Kans op neerslag
Gisteren
Hoog -- | Laag -- °F
Precip. -- inches
Druk 29.86 inches
Zicht 4.3 mijlen
Wolken
Dauwpunt 67 °F
Vochtigheid 86%
Neerslag 0.00 inches
Dikte sneeuw Niet beschikbaar.
6:41 AM 8:42 PM
Laatste kwartier, 40% visible
SPECI EHVL 260117Z AUTO 21006KT 7000 BR NCD 22/19 Q1011 WHT
Druk 29.86 inches
Zicht 4.3 mijlen
Wolken
Dauwpunt 67 °F
Vochtigheid 86%
Neerslag 0.00 inches
Dikte sneeuw Niet beschikbaar.
6:41 AM 8:42 PM
Laatste kwartier, 40% visible
SPECI EHVL 260117Z AUTO 21006KT 7000 BR NCD 22/19 Q1011 WHT

10-Day Weather Forecast

×

Almanac

Astronomie

Aug. 26, 2016 Opkomst Ondergang
Werkelijke tijd
Burgerlijke schemering
Nautische schemering
Astronomische schemering
Maan
Golflengte van het zichtbare licht
Daglengte
Tomorrow will be .
, % of the Moon is Illuminated

Extremen vandaag

Country Highs Country Lows

Community

WunderPhotos

Upload Photos

1,935,005 foto’s ge-upload!

WunderBlog® & News

Nearby

Luchtkwaliteit

  Luchtkwaliteit LK-index Verontreinigende stof
Not available.

Dikte sneeuw

Station Depth Geometrische hoogte

Aardbevingen

Stad Distance Mag. Time & Date
Minimum magnitude displayed is 2.5.

Watertemperatuur langs de kust

Plaats Temperatuur

Stations

Nabije weerstations

Locatie station Temp. Gevoelstemperatuur Dauwpunt Vochtigheid Wind Precip. Hoogte Geactualiseerd Type